Time;durP1;ratioP1;P1;durP2;ratioP2;P2;SDS_P1;SDS_P2;PMS_P1;PMS_P2;Temp;Humidity;BMP_temperature;BMP_pressure;BME280_temperature;BME280_humidity;BME280_pressure;Samples;Min_cycle;Max_cycle;Signal;HPM_P1;HPM_P2
2021/07/27 00:00:43;;;;;;;6.950001;6.249999;;;;;;;16.55;100;95171.23;;;;
2021/07/27 00:01:43;;;;;;;6.950001;6.249999;;;;;;;16.55;100;95171.23;;;;
2021/07/27 00:02:44;;;;;;;6.950001;6.249999;;;;;;;16.55;100;95171.23;;;;
2021/07/27 00:03:45;;;;;;;6.950001;6.249999;;;;;;;16.55;100;95171.23;;;;
2021/07/27 00:04:45;;;;;;;6.950001;6.249999;;;;;;;16.55;100;95171.23;;;;
2021/07/27 00:05:46;;;;;;;6.950001;6.249999;;;;;;;16.55;100;95171.23;;;;
2021/07/27 00:06:46;;;;;;;6.950001;6.249999;;;;;;;16.55;100;95171.23;;;;
2021/07/27 00:07:47;;;;;;;6.950001;6.249999;;;;;;;16.55;100;95171.23;;;;
2021/07/27 00:08:48;;;;;;;6.950001;6.249999;;;;;;;16.55;100;95171.23;;;;
2021/07/27 00:09:48;;;;;;;7.15;6.45;;;;;;;16.5;100;95195.37;;;;
2021/07/27 00:10:49;;;;;;;7.15;6.45;;;;;;;16.5;100;95195.37;;;;
2021/07/27 00:11:49;;;;;;;7.15;6.45;;;;;;;16.5;100;95195.37;;;;
2021/07/27 00:12:50;;;;;;;7.15;6.45;;;;;;;16.5;100;95195.37;;;;
2021/07/27 00:13:50;;;;;;;7.15;6.45;;;;;;;16.5;100;95195.37;;;;
2021/07/27 00:14:51;;;;;;;7.15;6.45;;;;;;;16.5;100;95195.37;;;;
2021/07/27 00:15:51;;;;;;;7.15;6.45;;;;;;;16.5;100;95195.37;;;;
2021/07/27 00:16:52;;;;;;;7.15;6.45;;;;;;;16.5;100;95195.37;;;;
2021/07/27 00:17:53;;;;;;;7.15;6.45;;;;;;;16.5;100;95195.37;;;;
2021/07/27 00:18:54;;;;;;;7.15;6.45;;;;;;;16.5;100;95195.37;;;;
2021/07/27 00:19:54;;;;;;;7.15;6.45;;;;;;;16.5;100;95195.37;;;;
2021/07/27 00:20:55;;;;;;;7.399999;5.849999;;;;;;;16.34;100;95186.91;;;;
2021/07/27 00:21:56;;;;;;;7.399999;5.849999;;;;;;;16.34;100;95186.91;;;;
2021/07/27 00:22:56;;;;;;;7.399999;5.849999;;;;;;;16.34;100;95186.91;;;;
2021/07/27 00:23:57;;;;;;;7.399999;5.849999;;;;;;;16.34;100;95186.91;;;;
2021/07/27 00:24:57;;;;;;;7.399999;5.849999;;;;;;;16.34;100;95186.91;;;;
2021/07/27 00:25:58;;;;;;;7.399999;5.849999;;;;;;;16.34;100;95186.91;;;;
2021/07/27 00:26:59;;;;;;;7.399999;5.849999;;;;;;;16.34;100;95186.91;;;;
2021/07/27 00:28:01;;;;;;;7.399999;5.849999;;;;;;;16.34;100;95186.91;;;;
2021/07/27 00:29:01;;;;;;;7.399999;5.849999;;;;;;;16.34;100;95186.91;;;;
2021/07/27 00:30:03;;;;;;;7.399999;5.849999;;;;;;;16.34;100;95186.91;;;;
2021/07/27 00:31:06;;;;;;;6.7;5.400001;;;;;;;16.21;100;95178.33;;;;
2021/07/27 00:32:07;;;;;;;6.7;5.400001;;;;;;;16.21;100;95178.33;;;;
2021/07/27 00:33:07;;;;;;;6.7;5.400001;;;;;;;16.21;100;95178.33;;;;
2021/07/27 00:34:08;;;;;;;6.7;5.400001;;;;;;;16.21;100;95178.33;;;;
2021/07/27 00:35:09;;;;;;;6.7;5.400001;;;;;;;16.21;100;95178.33;;;;
2021/07/27 00:36:12;;;;;;;6.7;5.400001;;;;;;;16.21;100;95178.33;;;;
2021/07/27 00:37:16;;;;;;;6.7;5.400001;;;;;;;16.21;100;95178.33;;;;
2021/07/27 00:38:19;;;;;;;6.7;5.400001;;;;;;;16.21;100;95178.33;;;;
2021/07/27 00:39:19;;;;;;;6.7;5.400001;;;;;;;16.21;100;95178.33;;;;
2021/07/27 00:40:20;;;;;;;6.7;5.400001;;;;;;;16.21;100;95178.33;;;;
2021/07/27 00:41:20;;;;;;;6.7;5.400001;;;;;;;16.21;100;95178.33;;;;
2021/07/27 00:42:21;;;;;;;6.15;5.6;;;;;;;16.03;100;95176.56;;;;
2021/07/27 00:43:21;;;;;;;6.15;5.6;;;;;;;16.03;100;95176.56;;;;
2021/07/27 00:44:22;;;;;;;6.15;5.6;;;;;;;16.03;100;95176.56;;;;
2021/07/27 00:45:23;;;;;;;6.15;5.6;;;;;;;16.03;100;95176.56;;;;
2021/07/27 00:46:23;;;;;;;6.15;5.6;;;;;;;16.03;100;95176.56;;;;
2021/07/27 00:47:24;;;;;;;6.15;5.6;;;;;;;16.03;100;95176.56;;;;
2021/07/27 00:48:24;;;;;;;6.15;5.6;;;;;;;16.03;100;95176.56;;;;
2021/07/27 00:49:25;;;;;;;6.15;5.6;;;;;;;16.03;100;95176.56;;;;
2021/07/27 00:50:26;;;;;;;6.15;5.6;;;;;;;16.03;100;95176.56;;;;
2021/07/27 00:51:27;;;;;;;6.15;5.6;;;;;;;16.03;100;95176.56;;;;
2021/07/27 00:52:29;;;;;;;6.249999;5.649999;;;;;;;15.99;100;95197.41;;;;
2021/07/27 00:53:30;;;;;;;6.249999;5.649999;;;;;;;15.99;100;95197.41;;;;
2021/07/27 00:54:30;;;;;;;6.249999;5.649999;;;;;;;15.99;100;95197.41;;;;
2021/07/27 00:55:31;;;;;;;6.249999;5.649999;;;;;;;15.99;100;95197.41;;;;
2021/07/27 00:56:32;;;;;;;6.249999;5.649999;;;;;;;15.99;100;95197.41;;;;
2021/07/27 00:57:33;;;;;;;6.249999;5.649999;;;;;;;15.99;100;95197.41;;;;
2021/07/27 00:58:34;;;;;;;6.249999;5.649999;;;;;;;15.99;100;95197.41;;;;
2021/07/27 00:59:34;;;;;;;6.249999;5.649999;;;;;;;15.99;100;95197.41;;;;
2021/07/27 01:00:35;;;;;;;6.249999;5.649999;;;;;;;15.99;100;95197.41;;;;
2021/07/27 01:01:36;;;;;;;6.249999;5.649999;;;;;;;15.99;100;95197.41;;;;
2021/07/27 01:02:37;;;;;;;6.249999;5.649999;;;;;;;15.99;100;95197.41;;;;
2021/07/27 01:03:38;;;;;;;6.15;5.65;;;;;;;15.82;100;95184.45;;;;
2021/07/27 01:04:38;;;;;;;6.15;5.65;;;;;;;15.82;100;95184.45;;;;
2021/07/27 01:05:39;;;;;;;6.15;5.65;;;;;;;15.82;100;95184.45;;;;
2021/07/27 01:06:39;;;;;;;6.15;5.65;;;;;;;15.82;100;95184.45;;;;
2021/07/27 01:07:40;;;;;;;6.15;5.65;;;;;;;15.82;100;95184.45;;;;
2021/07/27 01:08:42;;;;;;;6.15;5.65;;;;;;;15.82;100;95184.45;;;;
2021/07/27 01:09:43;;;;;;;6.15;5.65;;;;;;;15.82;100;95184.45;;;;
2021/07/27 01:10:44;;;;;;;6.15;5.65;;;;;;;15.82;100;95184.45;;;;
2021/07/27 01:11:45;;;;;;;6.15;5.65;;;;;;;15.82;100;95184.45;;;;
2021/07/27 01:12:46;;;;;;;6.15;5.65;;;;;;;15.82;100;95184.45;;;;
2021/07/27 01:13:47;;;;;;;7.95;6.25;;;;;;;15.76;100;95186.47;;;;
2021/07/27 01:14:48;;;;;;;7.95;6.25;;;;;;;15.76;100;95186.47;;;;
2021/07/27 01:15:49;;;;;;;7.95;6.25;;;;;;;15.76;100;95186.47;;;;
2021/07/27 01:16:49;;;;;;;7.95;6.25;;;;;;;15.76;100;95186.47;;;;
2021/07/27 01:17:51;;;;;;;7.95;6.25;;;;;;;15.76;100;95186.47;;;;
2021/07/27 01:18:59;;;;;;;7.95;6.25;;;;;;;15.76;100;95186.47;;;;
2021/07/27 01:20:04;;;;;;;7.95;6.25;;;;;;;15.76;100;95186.47;;;;
2021/07/27 01:37:53;;;;;;;7.7;6.599999;;;;;;;15.69;100;95181.84;;;;
2021/07/27 01:39:16;;;;;;;7.7;6.599999;;;;;;;15.69;100;95181.84;;;;
2021/07/27 01:40:18;;;;;;;7.7;6.599999;;;;;;;15.69;100;95181.84;;;;
2021/07/27 01:42:23;;;;;;;7.7;6.599999;;;;;;;15.69;100;95181.84;;;;
2021/07/27 01:43:29;;;;;;;7.7;6.599999;;;;;;;15.69;100;95181.84;;;;
2021/07/27 01:44:29;;;;;;;7.7;6.599999;;;;;;;15.69;100;95181.84;;;;
2021/07/27 01:45:30;;;;;;;7.7;6.599999;;;;;;;15.69;100;95181.84;;;;
2021/07/27 01:46:30;;;;;;;8.150002;6.4;;;;;;;15.62;100;95177.62;;;;
2021/07/27 01:47:32;;;;;;;8.150002;6.4;;;;;;;15.62;100;95177.62;;;;
2021/07/27 01:48:33;;;;;;;8.150002;6.4;;;;;;;15.62;100;95177.62;;;;
2021/07/27 01:49:36;;;;;;;8.150002;6.4;;;;;;;15.62;100;95177.62;;;;
2021/07/27 01:50:36;;;;;;;8.150002;6.4;;;;;;;15.62;100;95177.62;;;;
2021/07/27 01:51:37;;;;;;;8.150002;6.4;;;;;;;15.62;100;95177.62;;;;
2021/07/27 01:52:47;;;;;;;8.150002;6.4;;;;;;;15.62;100;95177.62;;;;
2021/07/27 01:53:49;;;;;;;8.150002;6.4;;;;;;;15.62;100;95177.62;;;;
2021/07/27 01:54:52;;;;;;;8.150002;6.4;;;;;;;15.62;100;95177.62;;;;
2021/07/27 01:55:53;;;;;;;8.150002;6.4;;;;;;;15.62;100;95177.62;;;;
2021/07/27 01:56:54;;;;;;;6.6;5.9;;;;;;;15.67;100;95171.23;;;;
2021/07/27 01:57:56;;;;;;;6.6;5.9;;;;;;;15.67;100;95171.23;;;;
2021/07/27 01:58:57;;;;;;;6.6;5.9;;;;;;;15.67;100;95171.23;;;;
2021/07/27 01:59:58;;;;;;;6.6;5.9;;;;;;;15.67;100;95171.23;;;;
2021/07/27 02:01:07;;;;;;;6.6;5.9;;;;;;;15.67;100;95171.23;;;;
2021/07/27 02:02:07;;;;;;;6.6;5.9;;;;;;;15.67;100;95171.23;;;;
2021/07/27 02:03:08;;;;;;;6.6;5.9;;;;;;;15.67;100;95171.23;;;;
2021/07/27 02:04:09;;;;;;;6.6;5.9;;;;;;;15.67;100;95171.23;;;;
2021/07/27 02:05:09;;;;;;;6.6;5.9;;;;;;;15.67;100;95171.23;;;;
2021/07/27 02:06:10;;;;;;;6.6;5.9;;;;;;;15.67;100;95171.23;;;;
2021/07/27 02:07:11;;;;;;;7.75;6.6;;;;;;;15.7;100;95170.67;;;;
2021/07/27 02:08:12;;;;;;;7.75;6.6;;;;;;;15.7;100;95170.67;;;;
2021/07/27 02:09:14;;;;;;;7.75;6.6;;;;;;;15.7;100;95170.67;;;;
2021/07/27 02:10:16;;;;;;;7.75;6.6;;;;;;;15.7;100;95170.67;;;;
2021/07/27 02:11:20;;;;;;;7.75;6.6;;;;;;;15.7;100;95170.67;;;;
2021/07/27 02:12:23;;;;;;;7.75;6.6;;;;;;;15.7;100;95170.67;;;;
2021/07/27 02:13:27;;;;;;;7.75;6.6;;;;;;;15.7;100;95170.67;;;;
2021/07/27 02:15:03;;;;;;;7.75;6.6;;;;;;;15.7;100;95170.67;;;;
2021/07/27 02:16:21;;;;;;;7.75;6.6;;;;;;;15.7;100;95170.67;;;;
2021/07/27 02:17:22;;;;;;;7.75;6.6;;;;;;;15.7;100;95170.67;;;;
2021/07/27 02:18:22;;;;;;;8.099998;6.699999;;;;;;;15.8;100;95174.38;;;;
2021/07/27 02:19:23;;;;;;;8.099998;6.699999;;;;;;;15.8;100;95174.38;;;;
2021/07/27 02:20:24;;;;;;;8.099998;6.699999;;;;;;;15.8;100;95174.38;;;;
2021/07/27 02:21:24;;;;;;;8.099998;6.699999;;;;;;;15.8;100;95174.38;;;;
2021/07/27 02:22:25;;;;;;;8.099998;6.699999;;;;;;;15.8;100;95174.38;;;;
2021/07/27 02:23:25;;;;;;;8.099998;6.699999;;;;;;;15.8;100;95174.38;;;;
2021/07/27 02:24:26;;;;;;;8.099998;6.699999;;;;;;;15.8;100;95174.38;;;;
2021/07/27 02:25:26;;;;;;;8.099998;6.699999;;;;;;;15.8;100;95174.38;;;;
2021/07/27 02:26:27;;;;;;;8.099998;6.699999;;;;;;;15.8;100;95174.38;;;;
2021/07/27 02:27:28;;;;;;;8.099998;6.699999;;;;;;;15.8;100;95174.38;;;;
2021/07/27 02:28:28;;;;;;;9.350001;7.45;;;;;;;15.9;100;95170.86;;;;
2021/07/27 02:29:30;;;;;;;9.350001;7.45;;;;;;;15.9;100;95170.86;;;;
2021/07/27 02:30:33;;;;;;;9.350001;7.45;;;;;;;15.9;100;95170.86;;;;
2021/07/27 02:31:40;;;;;;;9.350001;7.45;;;;;;;15.9;100;95170.86;;;;
2021/07/27 02:32:40;;;;;;;9.350001;7.45;;;;;;;15.9;100;95170.86;;;;
2021/07/27 02:33:41;;;;;;;9.350001;7.45;;;;;;;15.9;100;95170.86;;;;
2021/07/27 02:34:42;;;;;;;9.350001;7.45;;;;;;;15.9;100;95170.86;;;;
2021/07/27 02:35:42;;;;;;;9.350001;7.45;;;;;;;15.9;100;95170.86;;;;
2021/07/27 02:36:43;;;;;;;9.350001;7.45;;;;;;;15.9;100;95170.86;;;;
2021/07/27 02:37:43;;;;;;;9.350001;7.45;;;;;;;15.9;100;95170.86;;;;
2021/07/27 02:38:44;;;;;;;9.350001;7.45;;;;;;;15.9;100;95170.86;;;;
2021/07/27 02:39:46;;;;;;;7.799999;6.5;;;;;;;16.03;100;95177.51;;;;
2021/07/27 02:40:47;;;;;;;7.799999;6.5;;;;;;;16.03;100;95177.51;;;;
2021/07/27 02:41:48;;;;;;;7.799999;6.5;;;;;;;16.03;100;95177.51;;;;
2021/07/27 02:42:48;;;;;;;7.799999;6.5;;;;;;;16.03;100;95177.51;;;;
2021/07/27 02:43:49;;;;;;;7.799999;6.5;;;;;;;16.03;100;95177.51;;;;
2021/07/27 02:44:50;;;;;;;7.799999;6.5;;;;;;;16.03;100;95177.51;;;;
2021/07/27 02:45:50;;;;;;;7.799999;6.5;;;;;;;16.03;100;95177.51;;;;
2021/07/27 02:46:51;;;;;;;7.799999;6.5;;;;;;;16.03;100;95177.51;;;;
2021/07/27 02:47:52;;;;;;;7.799999;6.5;;;;;;;16.03;100;95177.51;;;;
2021/07/27 02:48:52;;;;;;;7.799999;6.5;;;;;;;16.03;100;95177.51;;;;
2021/07/27 02:50:01;;;;;;;7;6.000001;;;;;;;16.03;100;95164.31;;;;
2021/07/27 02:51:03;;;;;;;7;6.000001;;;;;;;16.03;100;95164.31;;;;
2021/07/27 02:52:03;;;;;;;7;6.000001;;;;;;;16.03;100;95164.31;;;;
2021/07/27 02:53:04;;;;;;;7;6.000001;;;;;;;16.03;100;95164.31;;;;
2021/07/27 02:54:05;;;;;;;7;6.000001;;;;;;;16.03;100;95164.31;;;;
2021/07/27 02:55:06;;;;;;;7;6.000001;;;;;;;16.03;100;95164.31;;;;
2021/07/27 02:56:08;;;;;;;7;6.000001;;;;;;;16.03;100;95164.31;;;;
2021/07/27 02:57:08;;;;;;;7;6.000001;;;;;;;16.03;100;95164.31;;;;
2021/07/27 02:58:09;;;;;;;7;6.000001;;;;;;;16.03;100;95164.31;;;;
2021/07/27 02:59:41;;;;;;;7;6.000001;;;;;;;16.03;100;95164.31;;;;
2021/07/27 03:00:41;;;;;;;7.299999;6.600001;;;;;;;16.04;100;95164.72;;;;
2021/07/27 03:01:42;;;;;;;7.299999;6.600001;;;;;;;16.04;100;95164.72;;;;
2021/07/27 03:02:44;;;;;;;7.299999;6.600001;;;;;;;16.04;100;95164.72;;;;
2021/07/27 03:03:45;;;;;;;7.299999;6.600001;;;;;;;16.04;100;95164.72;;;;
2021/07/27 03:04:49;;;;;;;7.299999;6.600001;;;;;;;16.04;100;95164.72;;;;
2021/07/27 03:05:53;;;;;;;7.299999;6.600001;;;;;;;16.04;100;95164.72;;;;
2021/07/27 03:06:55;;;;;;;7.299999;6.600001;;;;;;;16.04;100;95164.72;;;;
2021/07/27 03:07:58;;;;;;;7.299999;6.600001;;;;;;;16.04;100;95164.72;;;;
2021/07/27 03:09:15;;;;;;;7.299999;6.600001;;;;;;;16.04;100;95164.72;;;;
2021/07/27 03:10:17;;;;;;;7.299999;6.600001;;;;;;;16.04;100;95164.72;;;;
2021/07/27 03:11:18;;;;;;;6.45;5.75;;;;;;;15.93;100;95165.68;;;;
2021/07/27 03:12:19;;;;;;;6.45;5.75;;;;;;;15.93;100;95165.68;;;;
2021/07/27 03:13:19;;;;;;;6.45;5.75;;;;;;;15.93;100;95165.68;;;;
2021/07/27 03:14:20;;;;;;;6.45;5.75;;;;;;;15.93;100;95165.68;;;;
2021/07/27 03:15:20;;;;;;;6.45;5.75;;;;;;;15.93;100;95165.68;;;;
2021/07/27 03:16:22;;;;;;;6.45;5.75;;;;;;;15.93;100;95165.68;;;;
2021/07/27 03:17:24;;;;;;;6.45;5.75;;;;;;;15.93;100;95165.68;;;;
2021/07/27 03:18:25;;;;;;;6.45;5.75;;;;;;;15.93;100;95165.68;;;;
2021/07/27 03:19:26;;;;;;;6.45;5.75;;;;;;;15.93;100;95165.68;;;;
2021/07/27 03:20:27;;;;;;;6.45;5.75;;;;;;;15.93;100;95165.68;;;;
2021/07/27 03:21:29;;;;;;;6.45;5.75;;;;;;;15.93;100;95165.68;;;;
2021/07/27 03:22:29;;;;;;;6.05;5.45;;;;;;;15.87;100;95155.45;;;;
2021/07/27 03:23:30;;;;;;;6.05;5.45;;;;;;;15.87;100;95155.45;;;;
2021/07/27 03:24:30;;;;;;;6.05;5.45;;;;;;;15.87;100;95155.45;;;;
2021/07/27 03:25:31;;;;;;;6.05;5.45;;;;;;;15.87;100;95155.45;;;;
2021/07/27 03:26:31;;;;;;;6.05;5.45;;;;;;;15.87;100;95155.45;;;;
2021/07/27 03:27:32;;;;;;;6.05;5.45;;;;;;;15.87;100;95155.45;;;;
2021/07/27 03:28:32;;;;;;;6.05;5.45;;;;;;;15.87;100;95155.45;;;;
2021/07/27 03:29:33;;;;;;;6.05;5.45;;;;;;;15.87;100;95155.45;;;;
2021/07/27 03:30:34;;;;;;;6.05;5.45;;;;;;;15.87;100;95155.45;;;;
2021/07/27 03:31:34;;;;;;;6.05;5.45;;;;;;;15.87;100;95155.45;;;;
2021/07/27 03:32:35;;;;;;;6.5;5.9;;;;;;;15.69;100;95162.78;;;;
2021/07/27 03:33:36;;;;;;;6.5;5.9;;;;;;;15.69;100;95162.78;;;;
2021/07/27 03:34:37;;;;;;;6.5;5.9;;;;;;;15.69;100;95162.78;;;;
2021/07/27 03:35:37;;;;;;;6.5;5.9;;;;;;;15.69;100;95162.78;;;;
2021/07/27 03:36:37;;;;;;;6.5;5.9;;;;;;;15.69;100;95162.78;;;;
2021/07/27 03:37:38;;;;;;;6.5;5.9;;;;;;;15.69;100;95162.78;;;;
2021/07/27 03:38:38;;;;;;;6.5;5.9;;;;;;;15.69;100;95162.78;;;;
2021/07/27 03:39:40;;;;;;;6.5;5.9;;;;;;;15.69;100;95162.78;;;;
2021/07/27 03:40:40;;;;;;;6.5;5.9;;;;;;;15.69;100;95162.78;;;;
2021/07/27 03:41:41;;;;;;;6.5;5.9;;;;;;;15.69;100;95162.78;;;;
2021/07/27 03:42:42;;;;;;;6.5;5.9;;;;;;;15.69;100;95162.78;;;;
2021/07/27 03:43:43;;;;;;;6.95;5.3;;;;;;;15.59;100;95160.06;;;;
2021/07/27 03:44:43;;;;;;;6.95;5.3;;;;;;;15.59;100;95160.06;;;;
2021/07/27 03:45:44;;;;;;;6.95;5.3;;;;;;;15.59;100;95160.06;;;;
2021/07/27 03:46:45;;;;;;;6.95;5.3;;;;;;;15.59;100;95160.06;;;;
2021/07/27 03:47:52;;;;;;;6.95;5.3;;;;;;;15.59;100;95160.06;;;;
2021/07/27 03:48:53;;;;;;;6.95;5.3;;;;;;;15.59;100;95160.06;;;;
2021/07/27 03:49:53;;;;;;;6.95;5.3;;;;;;;15.59;100;95160.06;;;;
2021/07/27 03:50:54;;;;;;;6.95;5.3;;;;;;;15.59;100;95160.06;;;;
2021/07/27 03:51:54;;;;;;;6.95;5.3;;;;;;;15.59;100;95160.06;;;;
2021/07/27 03:52:59;;;;;;;6.95;5.3;;;;;;;15.59;100;95160.06;;;;
2021/07/27 03:54:00;;;;;;;6.95;5.3;;;;;;;15.59;100;95160.06;;;;
2021/07/27 03:55:00;;;;;;;6.95;5.3;;;;;;;15.59;100;95160.06;;;;
2021/07/27 03:56:01;;;;;;;6.95;5.3;;;;;;;15.59;100;95160.06;;;;
2021/07/27 03:57:02;;;;;;;6.95;5.3;;;;;;;15.59;100;95160.06;;;;
2021/07/27 03:58:03;;;;;;;6.95;5.3;;;;;;;15.59;100;95160.06;;;;
2021/07/27 03:59:04;;;;;;;6.95;5.3;;;;;;;15.59;100;95160.06;;;;
2021/07/27 04:00:05;;;;;;;6.95;5.3;;;;;;;15.59;100;95160.06;;;;
2021/07/27 04:01:07;;;;;;;6.95;5.3;;;;;;;15.59;100;95160.06;;;;
2021/07/27 04:02:07;;;;;;;6.95;5.3;;;;;;;15.59;100;95160.06;;;;
2021/07/27 04:03:08;;;;;;;6.95;5.3;;;;;;;15.59;100;95160.06;;;;
2021/07/27 04:04:08;;;;;;;6.95;5.3;;;;;;;15.59;100;95160.06;;;;
2021/07/27 04:05:09;;;;;;;5.9;4.75;;;;;;;15.48;100;95191.47;;;;
2021/07/27 04:06:10;;;;;;;5.9;4.75;;;;;;;15.48;100;95191.47;;;;
2021/07/27 04:07:11;;;;;;;5.9;4.75;;;;;;;15.48;100;95191.47;;;;
2021/07/27 04:08:12;;;;;;;5.9;4.75;;;;;;;15.48;100;95191.47;;;;
2021/07/27 04:09:12;;;;;;;5.9;4.75;;;;;;;15.48;100;95191.47;;;;
2021/07/27 04:10:13;;;;;;;5.9;4.75;;;;;;;15.48;100;95191.47;;;;
2021/07/27 04:11:14;;;;;;;5.9;4.75;;;;;;;15.48;100;95191.47;;;;
2021/07/27 04:12:14;;;;;;;5.9;4.75;;;;;;;15.48;100;95191.47;;;;
2021/07/27 04:13:15;;;;;;;5.9;4.75;;;;;;;15.48;100;95191.47;;;;
2021/07/27 04:14:16;;;;;;;5.9;4.75;;;;;;;15.48;100;95191.47;;;;
2021/07/27 04:15:16;;;;;;;5.6;5.1;;;;;;;15.48;100;95179.76;;;;
2021/07/27 04:16:17;;;;;;;5.6;5.1;;;;;;;15.48;100;95179.76;;;;
2021/07/27 04:17:18;;;;;;;5.6;5.1;;;;;;;15.48;100;95179.76;;;;
2021/07/27 04:18:18;;;;;;;5.6;5.1;;;;;;;15.48;100;95179.76;;;;
2021/07/27 04:19:19;;;;;;;5.6;5.1;;;;;;;15.48;100;95179.76;;;;
2021/07/27 04:20:19;;;;;;;5.6;5.1;;;;;;;15.48;100;95179.76;;;;
2021/07/27 04:21:20;;;;;;;5.6;5.1;;;;;;;15.48;100;95179.76;;;;
2021/07/27 04:22:20;;;;;;;5.6;5.1;;;;;;;15.48;100;95179.76;;;;
2021/07/27 04:23:21;;;;;;;5.6;5.1;;;;;;;15.48;100;95179.76;;;;
2021/07/27 04:24:21;;;;;;;5.6;5.1;;;;;;;15.48;100;95179.76;;;;
2021/07/27 04:25:22;;;;;;;5.6;5.1;;;;;;;15.48;100;95179.76;;;;
2021/07/27 04:26:23;;;;;;;6.649999;5.25;;;;;;;15.58;100;95173;;;;
2021/07/27 04:27:23;;;;;;;6.649999;5.25;;;;;;;15.58;100;95173;;;;
2021/07/27 04:28:24;;;;;;;6.649999;5.25;;;;;;;15.58;100;95173;;;;
2021/07/27 04:29:26;;;;;;;6.649999;5.25;;;;;;;15.58;100;95173;;;;
2021/07/27 04:30:26;;;;;;;6.649999;5.25;;;;;;;15.58;100;95173;;;;
2021/07/27 04:31:27;;;;;;;6.649999;5.25;;;;;;;15.58;100;95173;;;;
2021/07/27 04:32:29;;;;;;;6.649999;5.25;;;;;;;15.58;100;95173;;;;
2021/07/27 04:33:29;;;;;;;6.649999;5.25;;;;;;;15.58;100;95173;;;;
2021/07/27 04:34:36;;;;;;;6.649999;5.25;;;;;;;15.58;100;95173;;;;
2021/07/27 04:35:37;;;;;;;6.649999;5.25;;;;;;;15.58;100;95173;;;;
2021/07/27 04:36:37;;;;;;;6.649999;5.25;;;;;;;15.58;100;95173;;;;
2021/07/27 04:37:38;;;;;;;6.649999;5.25;;;;;;;15.58;100;95173;;;;
2021/07/27 04:38:38;;;;;;;6.649999;5.25;;;;;;;15.58;100;95173;;;;
2021/07/27 04:39:40;;;;;;;6.649999;5.25;;;;;;;15.58;100;95173;;;;
2021/07/27 04:40:40;;;;;;;6.649999;5.25;;;;;;;15.58;100;95173;;;;
2021/07/27 04:41:41;;;;;;;6.649999;5.25;;;;;;;15.58;100;95173;;;;
2021/07/27 04:42:42;;;;;;;6.649999;5.25;;;;;;;15.58;100;95173;;;;
2021/07/27 04:43:42;;;;;;;6.649999;5.25;;;;;;;15.58;100;95173;;;;
2021/07/27 04:44:43;;;;;;;6.649999;5.25;;;;;;;15.58;100;95173;;;;
2021/07/27 04:45:43;;;;;;;6.649999;5.25;;;;;;;15.58;100;95173;;;;
2021/07/27 04:46:44;;;;;;;6.649999;5.25;;;;;;;15.58;100;95173;;;;
2021/07/27 04:47:45;;;;;;;7.05;5.5;;;;;;;15.85;100;95177.09;;;;
2021/07/27 04:48:45;;;;;;;7.05;5.5;;;;;;;15.85;100;95177.09;;;;
2021/07/27 04:49:46;;;;;;;7.05;5.5;;;;;;;15.85;100;95177.09;;;;
2021/07/27 04:50:47;;;;;;;7.05;5.5;;;;;;;15.85;100;95177.09;;;;
2021/07/27 04:51:48;;;;;;;7.05;5.5;;;;;;;15.85;100;95177.09;;;;
2021/07/27 04:52:51;;;;;;;7.05;5.5;;;;;;;15.85;100;95177.09;;;;
2021/07/27 04:53:58;;;;;;;7.05;5.5;;;;;;;15.85;100;95177.09;;;;
2021/07/27 04:54:58;;;;;;;7.05;5.5;;;;;;;15.85;100;95177.09;;;;
2021/07/27 04:55:59;;;;;;;7.05;5.5;;;;;;;15.85;100;95177.09;;;;
2021/07/27 04:57:01;;;;;;;7.05;5.5;;;;;;;15.85;100;95177.09;;;;
2021/07/27 04:58:02;;;;;;;5.6;5.1;;;;;;;16.05;100;95174.39;;;;
2021/07/27 04:59:02;;;;;;;5.6;5.1;;;;;;;16.05;100;95174.39;;;;
2021/07/27 05:00:03;;;;;;;5.6;5.1;;;;;;;16.05;100;95174.39;;;;
2021/07/27 05:01:04;;;;;;;5.6;5.1;;;;;;;16.05;100;95174.39;;;;
2021/07/27 05:02:05;;;;;;;5.6;5.1;;;;;;;16.05;100;95174.39;;;;
2021/07/27 05:03:06;;;;;;;5.6;5.1;;;;;;;16.05;100;95174.39;;;;
2021/07/27 05:04:07;;;;;;;5.6;5.1;;;;;;;16.05;100;95174.39;;;;
2021/07/27 05:05:07;;;;;;;5.6;5.1;;;;;;;16.05;100;95174.39;;;;
2021/07/27 05:06:09;;;;;;;5.6;5.1;;;;;;;16.05;100;95174.39;;;;
2021/07/27 05:07:09;;;;;;;5.6;5.1;;;;;;;16.05;100;95174.39;;;;
2021/07/27 05:08:10;;;;;;;5.6;5.1;;;;;;;16.05;100;95174.39;;;;
2021/07/27 05:09:10;;;;;;;5.599999;5;;;;;;;16.37;100;95172.34;;;;
2021/07/27 05:10:11;;;;;;;5.599999;5;;;;;;;16.37;100;95172.34;;;;
2021/07/27 05:11:12;;;;;;;5.599999;5;;;;;;;16.37;100;95172.34;;;;
2021/07/27 05:12:12;;;;;;;5.599999;5;;;;;;;16.37;100;95172.34;;;;
2021/07/27 05:13:14;;;;;;;5.599999;5;;;;;;;16.37;100;95172.34;;;;
2021/07/27 05:14:14;;;;;;;5.599999;5;;;;;;;16.37;100;95172.34;;;;
2021/07/27 05:15:15;;;;;;;5.599999;5;;;;;;;16.37;100;95172.34;;;;
2021/07/27 05:16:18;;;;;;;5.599999;5;;;;;;;16.37;100;95172.34;;;;
2021/07/27 05:17:19;;;;;;;5.599999;5;;;;;;;16.37;100;95172.34;;;;
2021/07/27 05:18:19;;;;;;;5.599999;5;;;;;;;16.37;100;95172.34;;;;
2021/07/27 05:19:20;;;;;;;5.35;4.85;;;;;;;16.59;100;95179.14;;;;
2021/07/27 05:20:22;;;;;;;5.35;4.85;;;;;;;16.59;100;95179.14;;;;
2021/07/27 05:21:23;;;;;;;5.35;4.85;;;;;;;16.59;100;95179.14;;;;
2021/07/27 05:22:23;;;;;;;5.35;4.85;;;;;;;16.59;100;95179.14;;;;
2021/07/27 05:23:24;;;;;;;5.35;4.85;;;;;;;16.59;100;95179.14;;;;
2021/07/27 05:24:25;;;;;;;5.35;4.85;;;;;;;16.59;100;95179.14;;;;
2021/07/27 05:25:26;;;;;;;5.35;4.85;;;;;;;16.59;100;95179.14;;;;
2021/07/27 05:26:26;;;;;;;5.35;4.85;;;;;;;16.59;100;95179.14;;;;
2021/07/27 05:27:27;;;;;;;5.35;4.85;;;;;;;16.59;100;95179.14;;;;
2021/07/27 05:28:28;;;;;;;5.35;4.85;;;;;;;16.59;100;95179.14;;;;
2021/07/27 05:29:28;;;;;;;5.35;4.85;;;;;;;16.59;100;95179.14;;;;
2021/07/27 05:30:29;;;;;;;5.45;4.95;;;;;;;16.84;100;95178.66;;;;
2021/07/27 05:31:29;;;;;;;5.45;4.95;;;;;;;16.84;100;95178.66;;;;
2021/07/27 05:32:30;;;;;;;5.45;4.95;;;;;;;16.84;100;95178.66;;;;
2021/07/27 05:33:31;;;;;;;5.45;4.95;;;;;;;16.84;100;95178.66;;;;
2021/07/27 05:34:32;;;;;;;5.45;4.95;;;;;;;16.84;100;95178.66;;;;
2021/07/27 05:35:32;;;;;;;5.45;4.95;;;;;;;16.84;100;95178.66;;;;
2021/07/27 05:36:33;;;;;;;5.45;4.95;;;;;;;16.84;100;95178.66;;;;
2021/07/27 05:37:34;;;;;;;5.45;4.95;;;;;;;16.84;100;95178.66;;;;
2021/07/27 05:38:35;;;;;;;5.45;4.95;;;;;;;16.84;100;95178.66;;;;
2021/07/27 05:39:35;;;;;;;5.45;4.95;;;;;;;16.84;100;95178.66;;;;
2021/07/27 05:40:36;;;;;;;6.95;5.1;;;;;;;16.93;100;95172.09;;;;
2021/07/27 05:41:37;;;;;;;6.95;5.1;;;;;;;16.93;100;95172.09;;;;
2021/07/27 05:42:37;;;;;;;6.95;5.1;;;;;;;16.93;100;95172.09;;;;
2021/07/27 05:43:38;;;;;;;6.95;5.1;;;;;;;16.93;100;95172.09;;;;
2021/07/27 05:44:38;;;;;;;6.95;5.1;;;;;;;16.93;100;95172.09;;;;
2021/07/27 05:45:39;;;;;;;6.95;5.1;;;;;;;16.93;100;95172.09;;;;
2021/07/27 05:46:39;;;;;;;6.95;5.1;;;;;;;16.93;100;95172.09;;;;
2021/07/27 05:47:40;;;;;;;6.95;5.1;;;;;;;16.93;100;95172.09;;;;
2021/07/27 05:48:43;;;;;;;6.95;5.1;;;;;;;16.93;100;95172.09;;;;
2021/07/27 05:49:43;;;;;;;6.95;5.1;;;;;;;16.93;100;95172.09;;;;
2021/07/27 05:50:44;;;;;;;6.95;5.1;;;;;;;16.93;100;95172.09;;;;
2021/07/27 05:51:44;;;;;;;5.7;4.8;;;;;;;16.96;100;95172.34;;;;
2021/07/27 05:52:45;;;;;;;5.7;4.8;;;;;;;16.96;100;95172.34;;;;
2021/07/27 05:53:45;;;;;;;5.7;4.8;;;;;;;16.96;100;95172.34;;;;
2021/07/27 05:54:46;;;;;;;5.7;4.8;;;;;;;16.96;100;95172.34;;;;
2021/07/27 05:55:47;;;;;;;5.7;4.8;;;;;;;16.96;100;95172.34;;;;
2021/07/27 05:56:47;;;;;;;5.7;4.8;;;;;;;16.96;100;95172.34;;;;
2021/07/27 05:57:49;;;;;;;5.7;4.8;;;;;;;16.96;100;95172.34;;;;
2021/07/27 05:58:49;;;;;;;5.7;4.8;;;;;;;16.96;100;95172.34;;;;
2021/07/27 05:59:50;;;;;;;5.7;4.8;;;;;;;16.96;100;95172.34;;;;
2021/07/27 06:00:50;;;;;;;5.7;4.8;;;;;;;16.96;100;95172.34;;;;
2021/07/27 06:01:52;;;;;;;6.800001;5.4;;;;;;;17.05;100;95180.8;;;;
2021/07/27 06:02:52;;;;;;;6.800001;5.4;;;;;;;17.05;100;95180.8;;;;
2021/07/27 06:03:53;;;;;;;6.800001;5.4;;;;;;;17.05;100;95180.8;;;;
2021/07/27 06:04:53;;;;;;;6.800001;5.4;;;;;;;17.05;100;95180.8;;;;
2021/07/27 06:05:54;;;;;;;6.800001;5.4;;;;;;;17.05;100;95180.8;;;;
2021/07/27 06:06:54;;;;;;;6.800001;5.4;;;;;;;17.05;100;95180.8;;;;
2021/07/27 06:07:55;;;;;;;6.800001;5.4;;;;;;;17.05;100;95180.8;;;;
2021/07/27 06:08:55;;;;;;;6.800001;5.4;;;;;;;17.05;100;95180.8;;;;
2021/07/27 06:09:58;;;;;;;6.800001;5.4;;;;;;;17.05;100;95180.8;;;;
2021/07/27 06:10:58;;;;;;;6.800001;5.4;;;;;;;17.05;100;95180.8;;;;
2021/07/27 06:11:59;;;;;;;6.800001;5.4;;;;;;;17.05;100;95180.8;;;;
2021/07/27 06:12:59;;;;;;;6.200001;5.050001;;;;;;;17.4;100;95190.59;;;;
2021/07/27 06:14:00;;;;;;;6.200001;5.050001;;;;;;;17.4;100;95190.59;;;;
2021/07/27 06:15:01;;;;;;;6.200001;5.050001;;;;;;;17.4;100;95190.59;;;;
2021/07/27 06:16:02;;;;;;;6.200001;5.050001;;;;;;;17.4;100;95190.59;;;;
2021/07/27 06:17:03;;;;;;;6.200001;5.050001;;;;;;;17.4;100;95190.59;;;;
2021/07/27 06:18:04;;;;;;;6.200001;5.050001;;;;;;;17.4;100;95190.59;;;;
2021/07/27 06:19:04;;;;;;;6.200001;5.050001;;;;;;;17.4;100;95190.59;;;;
2021/07/27 06:20:06;;;;;;;6.200001;5.050001;;;;;;;17.4;100;95190.59;;;;
2021/07/27 06:21:07;;;;;;;6.200001;5.050001;;;;;;;17.4;100;95190.59;;;;
2021/07/27 06:22:08;;;;;;;6.200001;5.050001;;;;;;;17.4;100;95190.59;;;;
2021/07/27 06:23:08;;;;;;;5.299999;4.8;;;;;;;17.82;100;95196.12;;;;
2021/07/27 06:24:09;;;;;;;5.299999;4.8;;;;;;;17.82;100;95196.12;;;;